avis per tempestes more information blitzortung!


avis per Pluja more information rain snow radar


Visita la nostra xarxa de llocs de meteo:

Template documentation
and downloads

And another site



Thunderstorms From: 20-07-2018 17:00 Until: 21-07-2018 01:59 warning for: Thunderstorms Level: Yellow info button
Rain From: 20-07-2018 17:00 Until: 21-07-2018 01:59 warning for: Rain Level: Yellow info button

Pagina Historial Weather Underground text

Diari Resum January 4, 2016 Unitats:  Mètric    Imperial   Tant
« Previous Dia
SegĂźent Dia »
Diari Setmana Mensual Anual Personalitzada
  Maxima: Minima: Media:
Temperatura: -17.8 °C -12.5 °C -11.5 °C
Punt de rosada: -17.8 °C -14.8 °C -14.2 °C
Humitat: Humidity % 63 % 71 %
Wind Speed: 0 km/h 0 km/h 8.5 km/h
RĂ fegues de vent: 0 km/h - -
Vent:- - WSW
Pression baro: 0 hPa 31828.4 hPa -
Precipitacions: 25.4 mm    
Historical Graphs
 
 
Dades de taula per January 4, 2016
Temps Temperatura Punt de rosada Pression baro Vent Wind Speed RĂ fegues de vent Humitat Rainfall Rate (Hourly)
-17.8 °C -17.8 °C 0 hPa Calm     Humidity % 0 mm
11:22 -10.3 °C -13.7 °C 34063.2 hPa West 9 km/h 9 km/h 66 % 0 mm
11:23 -10.3 °C -13.7 °C 34063.2 hPa West 9 km/h 9 km/h 66 % 0 mm
11:28 -10.1 °C -13.7 °C 34063.2 hPa West 17.9 km/h 17.9 km/h 65 % 0 mm
11:33 -10.1 °C -13.7 °C 34063.2 hPa WSW 11.9 km/h 11.9 km/h 65 % 0 mm
11:38 -10.2 °C -13.8 °C 34063.2 hPa West 7.6 km/h 7.6 km/h 65 % 0 mm
11:43 -10.3 °C -13.8 °C 34063.2 hPa WNW 9 km/h 9 km/h 65 % 0 mm
11:48 -10.3 °C -13.9 °C 34063.2 hPa West 6 km/h 6 km/h 65 % 0 mm
11:53 -10.4 °C -14 °C 34063.2 hPa WNW 6.8 km/h 6.8 km/h 65 % 0 mm
11:58 -10.4 °C -14.1 °C 34029.3 hPa West 15 km/h 15 km/h 64 % 0 mm
12:03 -10.5 °C -14.1 °C 34029.3 hPa West 11.9 km/h 11.9 km/h 65 % 0 mm
12:08 -10.6 °C -14.1 °C 34029.3 hPa SW 3.1 km/h 4.2 km/h 65 % 0 mm
12:13 -10.6 °C -14.1 °C 33992.1 hPa NNE 5.6 km/h   65 % 0 mm
12:18 -10.6 °C -14.1 °C 33992.1 hPa WSW 9 km/h 9 km/h 65 % 0 mm
12:23 -10.6 °C -14.1 °C 33992.1 hPa WNW 9 km/h 9 km/h 65 % 0 mm
12:28 -10.6 °C -14.3 °C 33958.2 hPa WSW 11.9 km/h 11.9 km/h 64 % 0 mm
12:33 -10.6 °C -14.3 °C 33958.2 hPa WSW 15 km/h 15 km/h 64 % 0 mm
12:38 -10.6 °C -14.3 °C 33958.2 hPa WSW 11.9 km/h 11.9 km/h 64 % 0 mm
12:43 -10.6 °C -14.3 °C 33992.1 hPa WSW 3.1 km/h 5.6 km/h 64 % 0 mm
12:48 -10.6 °C -14.3 °C 33992.1 hPa West 6 km/h 6 km/h 64 % 0 mm
12:53 -10.6 °C -14.3 °C 33992.1 hPa West 8 km/h 8 km/h 64 % 0 mm
12:58 -10.6 °C -14.3 °C 33992.1 hPa WSW 6.3 km/h 6.3 km/h 64 % 0 mm
13:03 -10.6 °C -14.3 °C 33992.1 hPa WSW 6 km/h 6 km/h 64 % 0 mm
13:08 -10.5 °C -14.2 °C 33992.1 hPa SW 6 km/h 6 km/h 64 % 0 mm
13:13 -10.5 °C -14.2 °C 33958.2 hPa WSW 9 km/h 9 km/h 64 % 0 mm
13:18 -10.4 °C -14.1 °C 33958.2 hPa SW 7.6 km/h 7.6 km/h 64 % 0 mm
13:23 -10.4 °C -14.1 °C 33958.2 hPa SW 3.1 km/h 3.7 km/h 64 % 0 mm
13:28 -10.4 °C -14.1 °C 33958.2 hPa ENE 6 km/h 6 km/h 64 % 0 mm
13:33 -10.4 °C -14 °C 33958.2 hPa WSW 4.2 km/h   65 % 0 mm
13:38 -10.4 °C -14.1 °C 33958.2 hPa South 11.9 km/h 11.9 km/h 64 % 0 mm
13:43 -10.4 °C -14.1 °C 33958.2 hPa West 9 km/h 9 km/h 64 % 0 mm
13:48 -10.4 °C -14.1 °C 33958.2 hPa West 9 km/h 9 km/h 64 % 0 mm
13:53 -10.5 °C -14.3 °C 33958.2 hPa West 14 km/h 14 km/h 63 % 0 mm
13:58 -10.5 °C -14.3 °C 33924.3 hPa WSW 10.3 km/h 10.3 km/h 63 % 0 mm
14:03 -10.6 °C -14.4 °C 33924.3 hPa WSW 11.9 km/h 11.9 km/h 63 % 0 mm
14:08 -10.6 °C -14.4 °C 33924.3 hPa WSW 9 km/h 9 km/h 63 % 0 mm
14:13 -10.6 °C -14.4 °C 33924.3 hPa WSW 9.3 km/h 9.3 km/h 63 % 0 mm
14:18 -10.7 °C -14.2 °C 33924.3 hPa WSW 9 km/h 9.3 km/h 65 % 0 mm
14:23 -10.8 °C -14.3 °C 33924.3 hPa WSW 15 km/h 15 km/h 65 % 0 mm
14:28 -10.8 °C -14.2 °C 33958.2 hPa West 11.9 km/h 11.9 km/h 66 % 0 mm
14:33 -10.9 °C -14.2 °C 33958.2 hPa West 9 km/h 9 km/h 67 % 0 mm
14:38 -10.9 °C -14.2 °C 33958.2 hPa WSW 9 km/h 9 km/h 67 % 0 mm
14:43 -10.9 °C -14.1 °C 33924.3 hPa WSW 3.1 km/h   68 % 0 mm
14:48 -10.9 °C -14.1 °C 33924.3 hPa NE 6 km/h 6 km/h 68 % 0 mm
14:53 -10.9 °C -14.1 °C 33924.3 hPa West 3.1 km/h 4.2 km/h 68 % 0 mm
14:58 -10.9 °C -13.9 °C 33890.5 hPa SW 6.8 km/h 6.8 km/h 69 % 0 mm
15:03 -10.9 °C -14.1 °C 33890.5 hPa WSW 11.9 km/h 11.9 km/h 68 % 0 mm
15:08 -10.9 °C -14.1 °C 33890.5 hPa SSE 6.3 km/h 6.3 km/h 68 % 0 mm
15:13 -11 °C -14.2 °C 33924.3 hPa NNE 3.1 km/h 5.1 km/h 68 % 0 mm
15:19 -11 °C -14.2 °C 33924.3 hPa SW 8 km/h 8 km/h 68 % 0 mm
15:24 -11.1 °C -14.2 °C 33924.3 hPa WSW 6.8 km/h 6.8 km/h 68 % 0 mm
15:29 -11.1 °C -14.2 °C 33890.5 hPa WSW 6.8 km/h 6.8 km/h 68 % 0 mm
15:34 -11.1 °C -14.2 °C 33890.5 hPa West 8.5 km/h 8.5 km/h 68 % 0 mm
15:39 -11.1 °C -14.2 °C 33890.5 hPa West 3.7 km/h 3.7 km/h 68 % 0 mm
15:44 -11.1 °C -14.2 °C 33890.5 hPa WSW 9.8 km/h 9.8 km/h 68 % 0 mm
15:49 -11.1 °C -14.2 °C 33890.5 hPa West 12.2 km/h 12.2 km/h 68 % 0 mm
15:54 -11.1 °C -14.2 °C 33890.5 hPa WSW 6 km/h 6 km/h 68 % 0 mm
15:59 -11.1 °C -14.2 °C 33924.3 hPa WSW 9 km/h 9 km/h 69 % 0 mm
16:04 -11.2 °C -14.2 °C 33924.3 hPa West 3.1 km/h   69 % 0 mm
16:09 -11.2 °C -14.2 °C 33924.3 hPa NW 3.1 km/h 3.1 km/h 69 % 0 mm
16:14 -11.2 °C -14.3 °C 33924.3 hPa WSW 6.8 km/h   69 % 0 mm
16:19 -11.2 °C -14.3 °C 33924.3 hPa West 9 km/h 9 km/h 69 % 0 mm
16:24 -11.2 °C -14.3 °C 33924.3 hPa West 6 km/h 6 km/h 69 % 0 mm
16:29 -11.2 °C -14.3 °C 33890.5 hPa WNW 6 km/h 6 km/h 69 % 0 mm
16:34 -11.3 °C -14.2 °C 33890.5 hPa WSW 6 km/h 6 km/h 70 % 0 mm
16:39 -11.3 °C -14.2 °C 33890.5 hPa West 6 km/h 6 km/h 70 % 0 mm
16:44 -11.3 °C -14.3 °C 33924.3 hPa SW 6 km/h 6 km/h 70 % 0 mm
16:49 -11.3 °C -14.2 °C 33924.3 hPa SW 6 km/h 6 km/h 71 % 0 mm
16:54 -11.4 °C -14.2 °C 33924.3 hPa WSW 6 km/h 6 km/h 71 % 0 mm
16:59 -11.4 °C -14.1 °C 33890.5 hPa WSW 6 km/h 6 km/h 72 % 0 mm
17:04 -11.5 °C -14.2 °C 33890.5 hPa West 9.3 km/h 9.3 km/h 72 % 0 mm
17:09 -11.5 °C -14.2 °C 33890.5 hPa West 6 km/h 6 km/h 72 % 0 mm
17:14 -11.5 °C -14.2 °C 33890.5 hPa WSW 9 km/h 9 km/h 72 % 0 mm
17:19 -11.5 °C -14.2 °C 33890.5 hPa WSW 6.8 km/h 6.8 km/h 72 % 0 mm
17:24 -11.5 °C -14.2 °C 33890.5 hPa WSW 11.9 km/h 11.9 km/h 72 % 0 mm
17:29 -11.5 °C -14.2 °C 33924.3 hPa WNW 9 km/h 9 km/h 72 % 0 mm
17:34 -11.5 °C -14.3 °C 33924.3 hPa WNW 6 km/h 6 km/h 71 % 0 mm
17:39 -11.5 °C -14.3 °C 33924.3 hPa WSW 6 km/h 6 km/h 71 % 0 mm
17:44 -11.6 °C -14.3 °C 33890.5 hPa WSW 6 km/h 6 km/h 72 % 0 mm
17:49 -11.6 °C -14.3 °C 33890.5 hPa WSW 11.9 km/h 11.9 km/h 72 % 0 mm
17:54 -11.7 °C -14.3 °C 33890.5 hPa WSW 6 km/h 6 km/h 73 % 0 mm
17:59 -11.8 °C -14.3 °C 33924.3 hPa West 9 km/h 9 km/h 74 % 0 mm
18:04 -11.8 °C -14.2 °C 33924.3 hPa West 6 km/h 6 km/h 75 % 0 mm
18:09 -11.9 °C -14.3 °C 33924.3 hPa WSW 9 km/h 9 km/h 75 % 0 mm
18:14 -12 °C -14.3 °C 33924.3 hPa SW 9 km/h 9 km/h 76 % 0 mm
18:19 -12 °C -14.1 °C 33924.3 hPa WSW 7.6 km/h 7.6 km/h 77 % 0 mm
18:24 -12.1 °C -14.3 °C 33924.3 hPa WSW 9 km/h 9 km/h 77 % 0 mm
18:29 -12.2 °C -14.2 °C 33924.3 hPa WSW 6 km/h 6 km/h 78 % 0 mm
18:34 -12.2 °C -14.3 °C 33924.3 hPa WSW 6 km/h 6 km/h 78 % 0 mm
18:39 -12.2 °C -14.3 °C 33924.3 hPa WSW 6 km/h 6 km/h 78 % 0 mm
18:44 -12.3 °C -14.2 °C 33890.5 hPa WSW 6 km/h 6 km/h 79 % 0 mm
18:49 -12.3 °C -14.2 °C 33890.5 hPa SW 5.1 km/h 5.1 km/h 79 % 0 mm
18:54 -12.3 °C -14.3 °C 33890.5 hPa SW 6 km/h 6 km/h 79 % 0 mm
18:59 -12.4 °C -14.3 °C 33856.6 hPa SW 6 km/h 6 km/h 79 % 0 mm
19:04 -12.4 °C -14.4 °C 33856.6 hPa SW 6.8 km/h 6.8 km/h 79 % 0 mm
19:09 -12.4 °C -14.3 °C 33856.6 hPa SW 9.8 km/h 9.8 km/h 80 % 0 mm
19:14 -12.5 °C -14.2 °C 33924.3 hPa SW 9 km/h 9 km/h 81 % 0 mm
19:19 -12.5 °C -14.1 °C 31862.3 hPa SW 10.3 km/h 10.3 km/h 82 % 25.4 mm
19:24 -12.5 °C -14 °C 31862.3 hPa WSW 11.9 km/h 11.9 km/h 83 % 25.4 mm
19:29 -12.4 °C -14 °C 31828.4 hPa WSW 15 km/h 15 km/h 83 % 25.4 mm
19:34 -12.4 °C -13.9 °C 31828.4 hPa SW 17.9 km/h 17.9 km/h 84 % 25.4 mm
19:39 -12.4 °C -13.8 °C 31828.4 hPa SW 11.9 km/h 11.9 km/h 84 % 25.4 mm
19:44 -12.4 °C -13.8 °C 31828.4 hPa WSW 9 km/h 9 km/h 84 % 25.4 mm
19:49 -12.4 °C -13.8 °C 31828.4 hPa WSW 9 km/h 9 km/h 84 % 25.4 mm
19:56 -12.3 °C -13.8 °C 31828.4 hPa WSW 9 km/h 9 km/h 83 % 25.4 mm
20:01 -12.3 °C -13.8 °C 33890.5 hPa SW 9 km/h 9 km/h 83 % 25.4 mm
20:06 -12.3 °C -13.8 °C 33890.5 hPa SW 15 km/h 15 km/h 83 % 25.4 mm
20:11 -12.3 °C -13.8 °C 33924.3 hPa SW 11.9 km/h 11.9 km/h 83 % 25.4 mm
20:16 -12.3 °C -13.8 °C 33924.3 hPa SW 6 km/h 6 km/h 83 % 25.4 mm
20:21 -12.3 °C -13.9 °C 33924.3 hPa SW 8.5 km/h   82 % 0 mm
20:26 -12.2 °C -13.8 °C 33890.5 hPa West 11.9 km/h 11.9 km/h 82 % 0 mm
20:31 -12.2 °C -13.9 °C 33890.5 hPa WSW 12.2 km/h 12.2 km/h 81 % 0 mm
20:36 -12.1 °C -13.9 °C 33890.5 hPa West 9 km/h 9.8 km/h 80 % 0 mm
20:41 -12.1 °C -14.1 °C 33924.3 hPa WSW 11.9 km/h 11.9 km/h 79 % 0 mm
20:46 -12.1 °C -14.1 °C 33924.3 hPa WNW 15 km/h 15 km/h 79 % 0 mm
20:51 -12.1 °C -14.1 °C 33924.3 hPa WSW 15 km/h 15 km/h 78 % 0 mm
20:56 -12.1 °C -14.1 °C 33924.3 hPa WSW 11.9 km/h 11.9 km/h 78 % 0 mm
21:01 -12.1 °C -14.2 °C 33924.3 hPa WSW 11.9 km/h 11.9 km/h 77 % 0 mm
21:06 -12.1 °C -14.2 °C 33924.3 hPa SW 7.6 km/h 10.3 km/h 77 % 0 mm
21:11 -12 °C -14.3 °C 33890.5 hPa WSW 20.9 km/h 20.9 km/h 75 % 0 mm
21:16 -12 °C -14.3 °C 33890.5 hPa WNW 9 km/h 9 km/h 75 % 0 mm
21:21 -12 °C -14.3 °C 33890.5 hPa WSW 8 km/h 9.8 km/h 75 % 0 mm
21:26 -11.9 °C -14.3 °C 33924.3 hPa West 6 km/h 9.8 km/h 75 % 0 mm
21:31 -11.9 °C -14.3 °C 33924.3 hPa WSW 11.9 km/h 11.9 km/h 75 % 0 mm
21:36 -11.9 °C -14.4 °C 33924.3 hPa WSW 11.9 km/h 11.9 km/h 74 % 0 mm
21:41 -11.9 °C -14.4 °C 33890.5 hPa WSW 20.9 km/h 20.9 km/h 74 % 0 mm
21:46 -11.9 °C -14.4 °C 33890.5 hPa WNW 11.9 km/h 11.9 km/h 74 % 0 mm
21:51 -11.9 °C -14.4 °C 33890.5 hPa SW 9 km/h 9 km/h 74 % 0 mm
21:56 -11.9 °C -14.4 °C 33890.5 hPa WSW 8.5 km/h 9.3 km/h 74 % 0 mm
22:01 -11.9 °C -14.5 °C 33890.5 hPa WSW 6 km/h 12.7 km/h 73 % 0 mm
22:06 -11.9 °C -14.5 °C 33890.5 hPa WSW 6 km/h 8.5 km/h 73 % 0 mm
22:11 -11.9 °C -14.5 °C 33924.3 hPa WSW 9.3 km/h 9.8 km/h 73 % 0 mm
22:16 -12 °C -14.6 °C 33924.3 hPa WSW 14.5 km/h 14.5 km/h 73 % 0 mm
22:21 -12 °C -14.7 °C 33924.3 hPa SSW 9.8 km/h 11.1 km/h 72 % 0 mm
22:26 -12 °C -14.7 °C 33924.3 hPa North 11.9 km/h 11.9 km/h 72 % 0 mm
22:31 -12 °C -14.6 °C 33924.3 hPa WNW 9 km/h 9 km/h 73 % 0 mm
22:36 -12 °C -14.7 °C 33924.3 hPa NW 11.9 km/h 11.9 km/h 72 % 0 mm
22:41 -12 °C -14.6 °C 33924.3 hPa WSW 7.6 km/h 9.3 km/h 73 % 0 mm
22:46 -12 °C -14.7 °C 33924.3 hPa South 6 km/h 11.1 km/h 72 % 0 mm
22:51 -12 °C -14.7 °C 33924.3 hPa Calm     72 % 0 mm
22:56 -12.1 °C -14.6 °C 33924.3 hPa SSW 6 km/h 6.8 km/h 73 % 0 mm
23:01 -12.1 °C -14.6 °C 33924.3 hPa SW 9.3 km/h 9.3 km/h 73 % 0 mm
23:06 -12.1 °C -14.6 °C 33924.3 hPa SW 8 km/h 8 km/h 73 % 0 mm
23:16 -12.1 °C -14.7 °C 33924.3 hPa SSW 6 km/h 6 km/h 73 % 0 mm
23:21 -12.2 °C -14.7 °C 33924.3 hPa SW 3.1 km/h 5.6 km/h 73 % 0 mm
23:26 -12.2 °C -14.7 °C 33924.3 hPa Calm   5.6 km/h 73 % 0 mm
23:31 -12.1 °C -14.8 °C 33924.3 hPa SSW 8 km/h   72 % 0 mm
23:36 -12.1 °C -14.8 °C 33924.3 hPa SSW 9 km/h   72 % 0 mm
23:41 -12.1 °C -14.8 °C 33924.3 hPa SSW 9 km/h   72 % 0 mm
Meteo Sesrovires
Elogis d' Weather Underground - 2 mb

Guio original per  Jim McMurry - jmcmurry@mwt.net Adaptat per a la plantilla per  Wim van der Kuil - Leuven-Template.eu

Trobareu la nostra informacio del temps tambe a:

Weather Underground

AWEKAS